Historyczne dane pomiarowe

Dodano dane terminowe – wersja testowa.

Dane z okresu 1951-2019

Wersja bazy: 1.34 [2019-03-16, lista zmian], aktualizacja planowana na 2019-04-15

Dane meteo z obszaru Polski uzyskane na podstawie danych udostępnionych przez Instytut Meteorologii i Gospodarki Wodnej – Państwowy Instytut Badawczy.

 

Wybierz Datę:    

       

TemperaturaWilgotnośćWiatrCiśnienieOpadyŚniegCzas trwania zjawisk
 Stacja t tx tn tng RH VA  wxwx mslp ppp RRR   cm mm wxwxwxwxwxwxwx
1987-08-14 13.3 19.5 6.5--- 5.7 1.3---- 1.5------------
1987-08-13 13.3 18.0 10.4--- 5.3 1.7---- 0.8------------
1987-08-12 11.1 11.6 10.5--- 8.0 4.7---- 23.1------------
1987-08-11 11.3 13.8 10.5--- 8.0 4.3---- 20.1------------
1987-08-10 14.1 16.3 11.8--- 7.7 1.3---- 16.2------------
1987-08-09 14.8 19.5 11.5--- 6.0 2.0---- 3.6------------
1987-08-08 13.3 19.5 6.5--- 3.0 2.7---- 0.0------------
1987-08-07 12.6 16.5 10.5--- 4.0 5.0---- 0.0------------
1987-08-06 12.9 16.0 10.3--- 6.3 2.7---- 0.0------------
1987-08-05 12.2 16.5 8.5--- 4.0 3.7---- 0.0------------
1987-08-04 11.3 15.8 7.0--- 5.3 2.3---- 2.4------------
1987-08-03 12.4 16.0 10.5--- 7.3 3.0---- 4.7------------
1987-08-02 13.2 18.2 11.0--- 3.7 3.0---- 0.0------------
1987-08-01 14.6 17.2 11.0--- 8.0 4.3---- 9.2------------
1987-07-31 15.7 19.3 13.0--- 4.7 2.7---- 14.2------------
1987-07-30 15.0 19.0 9.5--- 6.0 1.3---- 0.0------------
1987-07-29 13.8 16.0 11.5--- 5.3 2.3---- 3.8------------
1987-07-28 13.0 17.4 10.5--- 4.0 3.7---- 0.0------------
1987-07-27 11.7 15.0 8.7--- 6.7 3.7---- 3.2------------
1987-07-26 14.5 18.7 10.1--- 5.0 4.0---- 0.0------------
1987-07-25 16.6 19.5 14.6--- 6.3 3.0---- 2.1------------
1987-07-24 17.6 24.0 13.0--- 4.0 2.0---- 0.0------------
1987-07-23 19.9 23.0 16.6--- 6.7 1.0---- 12.6------------
1987-07-22 20.2 24.6 13.0--- 3.3 1.3---- 0.0------------
1987-07-21 17.9 20.6 14.7--- 8.0 2.3---- 0.0------------
1987-07-20 17.3 18.7 16.1--- 7.7 3.3---- 6.0------------
1987-07-19 17.1 22.0 11.5--- 2.7 3.7---- 0.0------------
1987-07-18 18.5 22.6 13.3--- 1.7 5.0---- 0.0------------
1987-07-17 16.2 22.5 11.5--- 2.3 5.3---- 0.0------------
1987-07-16 17.1 22.0 8.2--- 1.3 1.0---- 0.0------------
1987-07-15 15.2 20.0 7.9--- 3.0 1.7---- 0.0------------
1987-07-14 13.5 17.5 10.1--- 5.0 5.3---- 1.1------------
1987-07-13 14.6 19.0 12.5--- 7.0 3.0---- 9.0------------
1987-07-12 14.7 18.5 9.8--- 8.0 2.0---- 6.6------------
1987-07-11 12.4 15.8 10.0--- 6.0 4.7---- 2.1------------
1987-07-10 12.3 16.0 10.5--- 4.3 5.0---- 1.6------------
1987-07-09 16.7 23.0 14.2--- 8.0 2.3---- 6.1------------
1987-07-08 21.3 27.2 12.7--- 1.7 2.7---- 7.6------------
1987-07-07 19.1 26.0 8.7--- 0.0 2.7---- 0.0------------
1987-07-06 17.0 22.5 8.5--- 0.0 3.0---- 0.0------------
1987-07-05 16.8 20.5 11.0--- 0.7 2.0---- 0.0------------
1987-07-04 14.6 19.0 9.0--- 2.3 3.3---- 0.0------------
1987-07-03 14.7 20.6 8.0--- 1.7 4.0---- 0.0------------
1987-07-02 17.1 20.5 12.9--- 1.0 1.3---- 0.0------------
1987-07-01 24.3 30.0 20.2--- 3.3 2.3---- 21.1------------
1987-06-30 20.5 24.8 16.1--- 4.3 2.0---- 0.0------------
1987-06-29 14.6 20.0 6.5--- 5.3 2.7---- 2.2------------
1987-06-28 13.3 16.1 9.5--- 5.0 3.0---- 2.2------------
1987-06-27 16.0 17.8 14.5--- 6.0 1.0---- 7.2------------
1987-06-26 14.6 19.8 6.0--- 7.0 2.7---- 0.0------------
1987-06-25 11.7 15.1 8.7--- 6.7 2.0---- 16.2------------
1987-06-24 15.1 18.2 13.1--- 4.7 1.7---- 2.2------------
1987-06-23 15.0 21.3 9.0--- 5.3 1.3---- 6.0------------
1987-06-22 18.0 24.5 7.7--- 2.0 1.0---- 0.0------------
1987-06-21 17.4 23.2 7.5--- 1.7 1.3---- 0.0------------
1987-06-20 14.5 19.8 7.6--- 7.0 1.7---- 0.0------------
1987-06-19 11.5 15.0 5.5--- 5.3 2.7---- 0.0------------
1987-06-18 13.0 17.6 5.1--- 2.0 3.3---- 0.0------------
1987-06-17 11.8 14.0 10.2--- 7.0 3.0---- 0.0------------
1987-06-16 15.1 20.7 10.2--- 7.3 2.7---- 1.9------------
570.1 ms

 

Źródłem pochodzenia danych jest Instytut Meteorologii i Gospodarki Wodnej – Państwowy Instytut Badawczy. Dane Instytutu Meteorologii i Gospodarki Wodnej – Państwowego Instytutu Badawczego zostały przetworzone.

Dane źródłowe można odnaleźć na stronie https://dane.imgw.pl